Key West Nas /Boca Chica Field/ Airport
KNQX : now visible

Airfield :











YOU CAN JOIN US ON...

 
LOGIN :

Register | Disclaimer

   EN    FR    IT 

 









Legend :    VFR   Marginal VFR   IFR   Intensive IFR   Very Intensive IFR
Visi :
Ceiling :
>= 8 km
>= 3000ft
5 to 8 km
1000 to 3000 ft
1500m to 5 km
500 to 1000 ft
800 to 1500m
200 to 500 ft
< 800m
< 200 ft
Symbols :   Thunderstorms  Fog  Heavy snow  Heavy precipitations  Wind > 20 kt






- Airport Elevation : 6 ft


KNQX - Key West Nas /Boca Chica Field/

CURRENT METAR :
  • 171653Z 01018KT 10SM SCT015 BKN040 23/18 A2990 RMK AO2 SLP124 T02330178 $

EXPIRED METARs :
  • 171553Z 02014KT 10SM SCT040 24/18 A2992 RMK AO2 SLP130 T02390178 $
  • 171453Z 34016KT 10SM SCT040 24/17 A2992 RMK AO2 SLP130 T02440167 50010 $

TAF AMD TAF KNQX
Valid from the 17 at 16:00 until the 18 at 15:00 UTC


1716/1815 36015G20KT 9999 SCT015 510005 QNH2980INS
TEMPO 1716/1719 BKN015
FM172300 33011KT 9999 FEW020 SCT040 500000 QNH2984INS T25/1719Z T19/1810Z AMD 1630 FN20056



MET'MAP, your aeronautical weather chart ! - Copyright ORBIFLY December 2007 - Disclaimer

ORBIFLY MET'MAP TEAM :

Programming & Development : Alexandra Zaïnal
Concept & Development : Baudouin d'Aumeries
Co-Development & Prog : Marc-Olivier Méhu
Technical & hardware support : Manuel Goepfert

Contact : metmap@orbifly.com




SOURCES & CREDITS :

   NOAA       Earth
Advisory